SKSP/ADZ METAR and TAF weather

Enter ICAO airport designator
Station Type Date Time Source
SKSP METAR 2019/10/15 03:00 UTC NOAA

SKSP 150300Z 12004KT 070V150 9999 FEW015 BKN080 26/24 A2989


Station Type Date Time Source
SKSP Decoded METAR 2019/10/15 03:00 UTC NOAA

San Andres Isla / Sesquicentenario, Colombia (SKSP) 12-35N 081-43W 6M
Oct 14, 2019 - 11:00 PM EDT / 2019.10.15 0300 UTC
Wind: from the ESE (120 degrees) at 5 MPH (4 KT) (direction variable):0
Visibility: greater than 7 mile(s):0
Sky conditions: mostly cloudy
Temperature: 78 F (26 C)
Dew Point: 75 F (24 C)
Relative Humidity: 88%
Pressure (altimeter): 29.89 in. Hg (1012 hPa)
ob: SKSP 150300Z 12004KT 070V150 9999 FEW015 BKN080 26/24 A2989
cycle: 3

Station Type Date Time Source
SKSP TAF 2019/10/14 18:54 UTC NOAA

TAF SKSP 141630Z 1418/1518 04008KT 9999 SCT015 BKN090 PROB40
TEMPO 1418/1421 7000 DZRA PROB40
TEMPO 1501/1504 7000 SHRA SCT015TCU TX30/1419Z TN26/1511Z

Example: see airport list